Time;durP1;ratioP1;P1;durP2;ratioP2;P2;SDS_P1;SDS_P2;PMS_P1;PMS_P2;Temp;Humidity;BMP_temperature;BMP_pressure;BME280_temperature;BME280_humidity;BME280_pressure;Samples;Min_cycle;Max_cycle;Signal;HPM_P1;HPM_P2
2022/05/02 00:01:18;;;;;;;14.38;8.90;;;;;;;;;;10475341;28;20386;-66
2022/05/02 00:06:21;;;;;;;15.00;9.85;;;;;;;;;;10497377;28;20052;-67
2022/05/02 00:11:23;;;;;;;11.30;8.73;;;;;;;;;;10486208;28;20064;-68
2022/05/02 00:16:27;;;;;;;14.63;9.48;;;;;;;;;;10515636;28;20041;-67
2022/05/02 00:21:30;;;;;;;15.80;9.40;;;;;;;;;;10514581;28;20047;-66
2022/05/02 00:26:32;;;;;;;15.25;8.65;;;;;;;;;;10473986;28;20056;-67
2022/05/02 00:31:36;;;;;;;18.20;9.05;;;;;;;;;;10474880;28;20243;-66
2022/05/02 00:36:38;;;;;;;14.90;8.38;;;;;;;;;;10475088;28;20102;-66
2022/05/02 00:41:40;;;;;;;14.68;8.82;;;;;;;;;;10474405;28;20040;-66
2022/05/02 00:46:44;;;;;;;15.43;8.95;;;;;;;;;;10473351;28;20048;-66
2022/05/02 00:51:46;;;;;;;13.95;9.02;;;;;;;;;;10474011;28;20331;-65
2022/05/02 00:56:48;;;;;;;13.50;9.13;;;;;;;;;;10473039;28;20045;-66
2022/05/02 01:01:52;;;;;;;12.88;9.00;;;;;;;;;;10472666;28;20052;-67
2022/05/02 01:07:10;;;;;;;12.70;9.13;;;;;;;;;;10473579;28;20045;-67
2022/05/02 01:12:14;;;;;;;13.27;8.90;;;;;;;;;;10481026;28;20057;-67
2022/05/02 01:17:19;;;;;;;11.23;8.38;;;;;;;;;;10487967;28;20060;-67
2022/05/02 01:22:22;;;;;;;10.57;8.02;;;;;;;;;;10489193;28;20041;-67
2022/05/02 01:27:24;;;;;;;13.05;7.68;;;;;;;;;;10478761;28;20041;-67
2022/05/02 01:32:27;;;;;;;11.25;7.25;;;;;;;;;;10514810;28;20056;-66
2022/05/02 01:37:31;;;;;;;9.23;7.95;;;;;;;;;;10472570;28;20159;-66
2022/05/02 01:42:33;;;;;;;9.32;7.45;;;;;;;;;;10473018;28;20378;-66
2022/05/02 01:47:36;;;;;;;11.13;7.70;;;;;;;;;;10483830;28;20048;-66
2022/05/02 01:52:39;;;;;;;10.95;7.25;;;;;;;;;;10513379;28;20040;-67
2022/05/02 01:57:42;;;;;;;13.65;7.35;;;;;;;;;;10513942;28;20312;-66
2022/05/02 02:02:44;;;;;;;8.85;7.25;;;;;;;;;;10496082;28;20048;-66
2022/05/02 02:08:02;;;;;;;20.73;8.30;;;;;;;;;;10485711;28;20072;-65
2022/05/02 02:13:05;;;;;;;11.43;6.85;;;;;;;;;;10471813;28;20065;-66
2022/05/02 02:18:08;;;;;;;11.55;7.85;;;;;;;;;;10503142;28;20041;-66
2022/05/02 02:23:13;;;;;;;12.40;7.55;;;;;;;;;;10518660;28;20077;-66
2022/05/02 02:28:16;;;;;;;10.23;7.63;;;;;;;;;;10493288;28;20340;-67
2022/05/02 02:33:18;;;;;;;11.88;7.47;;;;;;;;;;10479357;28;20048;-66
2022/05/02 02:38:22;;;;;;;14.05;7.22;;;;;;;;;;10481662;28;20041;-66
2022/05/02 02:43:24;;;;;;;15.93;7.72;;;;;;;;;;10479101;28;20052;-66
2022/05/02 02:48:27;;;;;;;13.13;7.45;;;;;;;;;;10479218;28;20049;-66
2022/05/02 02:53:30;;;;;;;9.82;7.75;;;;;;;;;;10512160;28;20304;-67
2022/05/02 02:58:32;;;;;;;9.05;7.38;;;;;;;;;;10498223;28;20328;-67
2022/05/02 03:03:35;;;;;;;11.43;7.78;;;;;;;;;;10477926;28;20045;-67
2022/05/02 03:08:40;;;;;;;15.18;8.38;;;;;;;;;;10478006;28;20310;-67
2022/05/02 03:13:42;;;;;;;13.20;8.50;;;;;;;;;;10476421;28;20414;-67
2022/05/02 03:18:45;;;;;;;12.60;7.80;;;;;;;;;;10477359;28;20040;-67
2022/05/02 03:23:49;;;;;;;17.50;8.88;;;;;;;;;;10503191;28;20048;-66
2022/05/02 03:28:51;;;;;;;14.98;8.15;;;;;;;;;;10488292;28;20033;-66
2022/05/02 03:33:53;;;;;;;14.68;8.35;;;;;;;;;;10497546;28;20237;-67
2022/05/02 03:38:57;;;;;;;18.60;8.93;;;;;;;;;;10476093;28;20033;-66
2022/05/02 03:44:00;;;;;;;10.82;8.20;;;;;;;;;;10477740;28;20041;-66
2022/05/02 03:49:02;;;;;;;14.55;9.25;;;;;;;;;;10517757;28;20225;-66
2022/05/02 03:54:06;;;;;;;14.85;10.32;;;;;;;;;;10516187;28;20255;-66
2022/05/02 03:59:08;;;;;;;14.68;10.77;;;;;;;;;;10488480;28;20270;-66
2022/05/02 04:04:11;;;;;;;17.23;11.27;;;;;;;;;;10510764;28;20370;-66
2022/05/02 04:09:15;;;;;;;14.75;9.10;;;;;;;;;;10506154;28;20041;-66
2022/05/02 04:14:17;;;;;;;11.90;8.55;;;;;;;;;;10474478;28;20048;-67
2022/05/02 04:19:20;;;;;;;11.75;9.23;;;;;;;;;;10475965;28;20068;-67
2022/05/02 04:24:24;;;;;;;12.27;8.98;;;;;;;;;;10473960;28;20340;-67
2022/05/02 04:29:26;;;;;;;12.05;8.98;;;;;;;;;;10505897;28;20086;-66
2022/05/02 04:34:28;;;;;;;30.30;13.25;;;;;;;;;;10480533;28;20048;-67
2022/05/02 04:39:32;;;;;;;37.15;15.95;;;;;;;;;;10505117;28;20040;-66
2022/05/02 04:44:34;;;;;;;17.52;11.02;;;;;;;;;;10514896;28;20044;-66
2022/05/02 04:49:37;;;;;;;18.13;9.05;;;;;;;;;;10490593;28;20044;-66
2022/05/02 04:54:40;;;;;;;14.85;10.50;;;;;;;;;;10473020;28;20052;-67
2022/05/02 04:59:43;;;;;;;12.77;8.77;;;;;;;;;;10492284;28;20270;-67
2022/05/02 05:04:46;;;;;;;26.67;8.73;;;;;;;;;;10499682;28;20247;-66
2022/05/02 05:09:49;;;;;;;12.50;8.52;;;;;;;;;;10492302;28;20350;-67
2022/05/02 05:20:35;;;;;;;8.05;7.18;;;;;;;;;;10473076;28;20053;-70
2022/05/02 05:25:52;;;;;;;8.98;7.30;;;;;;;;;;10486344;28;20049;-74
2022/05/02 05:31:06;;;;;;;9.70;6.07;;;;;;;;;;10506745;28;20041;-72
2022/05/02 05:36:20;;;;;;;7.63;5.50;;;;;;;;;;10488980;28;20044;-71
2022/05/02 05:41:36;;;;;;;6.32;5.20;;;;;;;;;;10499191;28;20078;-71
2022/05/02 05:46:49;;;;;;;7.28;5.05;;;;;;;;;;10484467;28;20053;-70
2022/05/02 05:52:01;;;;;;;8.48;5.57;;;;;;;;;;10488406;28;20338;-71
2022/05/02 05:57:13;;;;;;;7.78;5.40;;;;;;;;;;10511107;28;20044;-71
2022/05/02 06:02:20;;;;;;;7.53;5.63;;;;;;;;;;10500422;28;20229;-71
2022/05/02 06:07:23;;;;;;;7.32;4.90;;;;;;;;;;10502434;28;20091;-67
2022/05/02 06:12:32;;;;;;;5.15;4.65;;;;;;;;;;10496853;28;20065;-68
2022/05/02 06:23:03;;;;;;;6.88;4.15;;;;;;;;;;10515223;28;20048;-68
2022/05/02 06:28:08;;;;;;;5.25;3.80;;;;;;;;;;10516173;28;20221;-67
2022/05/02 06:33:13;;;;;;;3.88;3.17;;;;;;;;;;10520118;28;20114;-69
2022/05/02 06:38:26;;;;;;;6.72;3.70;;;;;;;;;;10520986;28;20209;-70
2022/05/02 06:43:34;;;;;;;3.20;2.90;;;;;;;;;;10479301;28;20132;-67
2022/05/02 06:48:41;;;;;;;3.85;2.70;;;;;;;;;;10492258;28;20041;-67
2022/05/02 06:54:02;;;;;;;5.72;2.65;;;;;;;;;;10493284;28;20067;-67
2022/05/02 06:59:11;;;;;;;3.47;2.38;;;;;;;;;;10510332;28;20366;-72
2022/05/02 07:04:29;;;;;;;2.55;2.35;;;;;;;;;;10479791;28;20110;-71
2022/05/02 07:09:33;;;;;;;;;;;;;;;;;;10492057;28;20048;-72
2022/05/02 07:14:53;;;;;;;5.00;3.40;;;;;;;;;;10474105;28;20207;-71
2022/05/02 07:20:03;;;;;;;8.25;3.28;;;;;;;;;;10490902;28;20086;-70
2022/05/02 07:25:10;;;;;;;;;;;;;;;;;;10490951;28;20335;-70
2022/05/02 07:30:17;;;;;;;3.58;3.28;;;;;;;;;;10475578;28;19917;-70
2022/05/02 07:35:21;;;;;;;11.93;3.78;;;;;;;;;;10513561;28;20053;-69
2022/05/02 07:40:25;;;;;;;6.30;2.40;;;;;;;;;;10512927;28;20336;-71
2022/05/02 07:45:30;;;;;;;4.38;1.77;;;;;;;;;;10515503;28;20060;-72
2022/05/02 07:50:33;;;;;;;7.97;2.22;;;;;;;;;;10512763;28;20231;-71
2022/05/02 07:55:35;;;;;;;4.00;1.58;;;;;;;;;;10516781;28;20067;-70
2022/05/02 08:00:39;;;;;;;69.18;6.50;;;;;;;;;;10488881;28;20243;-72
2022/05/02 08:05:46;;;;;;;4.00;1.63;;;;;;;;;;10490145;28;20049;-71
2022/05/02 08:11:02;;;;;;;10.23;2.10;;;;;;;;;;10486070;28;20084;-69
2022/05/02 08:16:16;;;;;;;7.75;1.92;;;;;;;;;;10485696;28;20336;-71
2022/05/02 08:21:23;;;;;;;2.45;2.25;;;;;;;;;;10514069;28;20319;-71
2022/05/02 08:32:10;;;;;;;4.30;4.00;;;;;;;;;;10489391;28;20243;-72
2022/05/02 08:37:43;;;;;;;5.25;4.80;;;;;;;;;;10485116;28;20044;-72
2022/05/02 08:43:16;;;;;;;5.30;5.10;;;;;;;;;;10473117;28;20045;-73
2022/05/02 08:49:32;;;;;;;5.85;5.65;;;;;;;;;;10487734;28;20050;-72
2022/05/02 08:54:44;;;;;;;6.25;6.05;;;;;;;;;;10480783;28;20061;-71
2022/05/02 09:00:06;;;;;;;5.28;5.07;;;;;;;;;;10473106;28;20309;-71
2022/05/02 09:05:47;;;;;;;3.22;3.13;;;;;;;;;;10487571;28;20049;-70
2022/05/02 09:11:31;;;;;;;1.70;1.70;;;;;;;;;;10493505;28;20068;-70
2022/05/02 09:17:07;;;;;;;1.10;1.10;;;;;;;;;;10512919;28;20044;-68
2022/05/02 09:22:43;;;;;;;0.90;0.90;;;;;;;;;;10482211;28;20048;-68
2022/05/02 09:28:00;;;;;;;0.60;0.60;;;;;;;;;;10524947;28;20095;-67
2022/05/02 09:33:30;;;;;;;0.30;0.30;;;;;;;;;;10528487;28;20048;-67
2022/05/02 09:38:50;;;;;;;0.00;0.00;;;;;;;;;;10518331;28;20048;-68
2022/05/02 09:50:00;;;;;;;7.72;2.45;;;;;;;;;;10481227;28;20267;-70
2022/05/02 10:01:08;;;;;;;7.85;3.00;;;;;;;;;;10515742;28;20040;-69
2022/05/02 10:06:17;;;;;;;11.38;3.40;;;;;;;;;;10503421;28;20045;-68
2022/05/02 10:11:50;;;;;;;5.50;3.15;;;;;;;;;;10507251;28;20064;-69
2022/05/02 10:16:58;;;;;;;5.65;3.75;;;;;;;;;;10507687;28;20316;-72
2022/05/02 10:22:24;;;;;;;10.38;4.10;;;;;;;;;;10493096;28;20040;-72
2022/05/02 10:27:35;;;;;;;8.60;4.63;;;;;;;;;;10519534;28;20243;-66
2022/05/02 10:32:57;;;;;;;11.68;5.72;;;;;;;;;;10479206;28;20079;-69
2022/05/02 10:38:00;;;;;;;9.75;4.88;;;;;;;;;;10491841;28;20041;-71
2022/05/02 10:43:05;;;;;;;7.53;5.28;;;;;;;;;;10476641;28;20271;-70
2022/05/02 10:48:15;;;;;;;8.00;5.60;;;;;;;;;;10477017;28;20048;-71
2022/05/02 10:53:36;;;;;;;12.95;7.00;;;;;;;;;;10491993;28;20045;-71
2022/05/02 10:58:44;;;;;;;9.32;5.90;;;;;;;;;;10510116;28;20044;-73
2022/05/02 11:04:01;;;;;;;9.55;6.30;;;;;;;;;;10489895;28;20033;-69
2022/05/02 11:09:06;;;;;;;12.13;6.40;;;;;;;;;;10512244;28;20101;-68
2022/05/02 11:14:23;;;;;;;8.27;5.80;;;;;;;;;;10491414;28;20061;-68
2022/05/02 11:25:06;;;;;;;7.35;5.82;;;;;;;;;;10476324;28;20044;-71
2022/05/02 11:30:10;;;;;;;10.32;6.10;;;;;;;;;;10477911;28;20052;-71
2022/05/02 11:35:14;;;;;;;;;;;;;;;;;;10516483;28;20056;-72
2022/05/02 11:40:18;;;;;;;11.00;6.25;;;;;;;;;;10510972;28;19925;-70
2022/05/02 11:45:29;;;;;;;9.15;6.30;;;;;;;;;;10484992;28;20049;-71
2022/05/02 11:50:43;;;;;;;11.90;8.00;;;;;;;;;;10494035;28;20055;-71
2022/05/02 11:55:47;;;;;;;9.70;7.20;;;;;;;;;;10488912;28;20221;-71
2022/05/02 12:00:53;;;;;;;14.05;7.38;;;;;;;;;;10496028;28;20045;-71
2022/05/02 12:06:02;;;;;;;9.88;6.43;;;;;;;;;;10504606;28;20047;-71
2022/05/02 12:11:06;;;;;;;12.82;6.32;;;;;;;;;;10500965;28;20048;-71
2022/05/02 12:16:11;;;;;;;14.43;6.90;;;;;;;;;;10475138;28;20063;-69
2022/05/02 12:21:21;;;;;;;15.02;6.43;;;;;;;;;;10491183;28;20098;-69
2022/05/02 12:26:25;;;;;;;11.38;6.53;;;;;;;;;;10510645;28;20051;-70
2022/05/02 12:31:28;;;;;;;8.52;6.18;;;;;;;;;;10516238;28;20343;-70
2022/05/02 12:36:39;;;;;;;19.90;7.00;;;;;;;;;;10517045;28;20155;-69
2022/05/02 12:41:45;;;;;;;8.80;6.20;;;;;;;;;;10527739;28;20339;-69
2022/05/02 12:46:50;;;;;;;12.15;7.30;;;;;;;;;;10529836;28;20212;-68
2022/05/02 12:51:55;;;;;;;8.32;6.53;;;;;;;;;;10515554;28;20041;-72
2022/05/02 13:02:36;;;;;;;8.73;6.85;;;;;;;;;;10385825;28;20057;-69
2022/05/02 13:07:44;;;;;;;11.60;7.10;;;;;;;;;;10387638;28;20165;-69
2022/05/02 13:13:05;;;;;;;8.90;6.50;;;;;;;;;;10392351;28;20057;-70
2022/05/02 13:18:12;;;;;;;7.35;6.03;;;;;;;;;;10385097;28;20068;-70
2022/05/02 13:23:17;;;;;;;14.27;6.43;;;;;;;;;;10400969;28;20360;-73
2022/05/02 13:28:23;;;;;;;;;;;;;;;;;;10387612;28;20062;-69
2022/05/02 13:33:35;;;;;;;9.88;6.15;;;;;;;;;;10459984;28;19970;-71
2022/05/02 13:38:44;;;;;;;9.23;5.70;;;;;;;;;;10490045;28;20289;-70
2022/05/02 13:43:54;;;;;;;6.32;5.60;;;;;;;;;;10489300;28;20037;-71
2022/05/02 13:49:05;;;;;;;9.60;6.45;;;;;;;;;;10498085;28;20044;-73
2022/05/02 13:54:16;;;;;;;8.30;6.03;;;;;;;;;;10495911;28;20078;-73
2022/05/02 13:59:26;;;;;;;9.40;5.78;;;;;;;;;;10511322;28;20068;-72
2022/05/02 14:04:39;;;;;;;9.60;6.25;;;;;;;;;;10509916;28;20041;-71
2022/05/02 14:09:54;;;;;;;10.30;6.32;;;;;;;;;;10530556;28;20407;-72
2022/05/02 14:14:58;;;;;;;10.85;5.82;;;;;;;;;;10506743;28;20194;-71
2022/05/02 14:20:14;;;;;;;7.25;5.47;;;;;;;;;;10481440;28;20199;-71
2022/05/02 14:25:26;;;;;;;12.23;5.20;;;;;;;;;;10504680;28;20068;-72
2022/05/02 14:30:31;;;;;;;5.97;5.20;;;;;;;;;;10493099;28;20271;-71
2022/05/02 14:35:37;;;;;;;8.02;5.72;;;;;;;;;;10479456;28;20040;-71
2022/05/02 14:40:45;;;;;;;16.40;5.95;;;;;;;;;;10501628;28;20036;-70
2022/05/02 14:45:49;;;;;;;8.10;5.07;;;;;;;;;;10479606;28;20299;-70
2022/05/02 14:50:53;;;;;;;6.07;5.20;;;;;;;;;;10479932;28;20086;-70
2022/05/02 14:55:58;;;;;;;11.87;7.10;;;;;;;;;;10507528;28;20052;-71
2022/05/02 15:01:04;;;;;;;13.50;6.22;;;;;;;;;;10505770;28;20053;-70
2022/05/02 15:06:08;;;;;;;9.38;5.28;;;;;;;;;;10492227;28;20354;-71
2022/05/02 15:11:24;;;;;;;10.07;4.80;;;;;;;;;;10480904;28;20057;-70
2022/05/02 15:16:38;;;;;;;6.07;4.40;;;;;;;;;;10512312;28;20052;-70
2022/05/02 15:21:43;;;;;;;8.07;4.47;;;;;;;;;;10479043;28;20061;-71
2022/05/02 15:26:53;;;;;;;;;;;;;;;;;;10486223;28;20052;-71
2022/05/02 15:37:22;;;;;;;9.10;5.00;;;;;;;;;;10490632;28;20074;-70
2022/05/02 15:42:26;;;;;;;11.43;4.57;;;;;;;;;;10476678;28;20143;-70
2022/05/02 15:47:37;;;;;;;6.90;4.68;;;;;;;;;;10479606;28;20056;-70
2022/05/02 15:53:01;;;;;;;6.43;4.22;;;;;;;;;;10490578;28;20036;-70
2022/05/02 15:58:05;;;;;;;8.90;4.53;;;;;;;;;;10477353;28;20108;-68
2022/05/02 16:03:18;;;;;;;6.93;4.72;;;;;;;;;;10491195;28;20059;-69
2022/05/02 16:13:49;;;;;;;8.60;4.45;;;;;;;;;;10480604;28;20076;-67
2022/05/02 16:18:55;;;;;;;6.57;4.63;;;;;;;;;;10499479;28;20037;-68
2022/05/02 16:23:58;;;;;;;7.35;4.30;;;;;;;;;;10491527;28;20056;-69
2022/05/02 16:29:14;;;;;;;6.65;4.93;;;;;;;;;;10476994;28;20036;-69
2022/05/02 16:34:18;;;;;;;5.65;4.50;;;;;;;;;;10511666;28;20109;-68
2022/05/02 16:39:21;;;;;;;6.20;4.65;;;;;;;;;;10515495;28;20047;-68
2022/05/02 16:44:25;;;;;;;6.18;4.45;;;;;;;;;;10482142;28;20055;-68
2022/05/02 16:49:28;;;;;;;7.77;4.47;;;;;;;;;;10482433;28;20086;-69
2022/05/02 16:54:30;;;;;;;9.60;5.40;;;;;;;;;;10474762;28;20049;-68
2022/05/02 16:59:35;;;;;;;9.57;4.20;;;;;;;;;;10474243;28;20099;-68
2022/05/02 17:04:43;;;;;;;;;;;;;;;;;;10499525;28;20067;-67
2022/05/02 17:09:46;;;;;;;8.23;4.38;;;;;;;;;;10483175;28;19931;-70
2022/05/02 17:14:50;;;;;;;8.93;5.32;;;;;;;;;;10473134;28;20324;-68
2022/05/02 17:19:53;;;;;;;5.18;4.72;;;;;;;;;;10473356;28;20049;-67
2022/05/02 17:25:00;;;;;;;7.00;4.40;;;;;;;;;;10495405;28;20041;-68
2022/05/02 17:30:09;;;;;;;12.30;5.28;;;;;;;;;;10525840;28;20232;-67
2022/05/02 17:35:13;;;;;;;13.45;5.13;;;;;;;;;;10528026;28;20103;-67
2022/05/02 17:40:19;;;;;;;13.90;5.90;;;;;;;;;;10512626;28;20334;-68
2022/05/02 17:45:24;;;;;;;10.80;6.47;;;;;;;;;;10528706;28;20083;-67
2022/05/02 17:50:27;;;;;;;10.25;6.25;;;;;;;;;;10522639;28;20052;-68
2022/05/02 17:55:32;;;;;;;9.30;5.60;;;;;;;;;;10518413;28;20231;-68
2022/05/02 18:00:39;;;;;;;7.88;4.97;;;;;;;;;;10532637;28;20040;-69
2022/05/02 18:05:45;;;;;;;22.42;10.43;;;;;;;;;;10527626;28;20041;-67
2022/05/02 18:10:49;;;;;;;9.52;6.10;;;;;;;;;;10480734;28;20107;-67
2022/05/02 18:16:03;;;;;;;11.48;6.97;;;;;;;;;;10480972;28;20057;-67
2022/05/02 18:21:06;;;;;;;11.23;5.63;;;;;;;;;;10507070;28;20037;-69
2022/05/02 18:26:19;;;;;;;18.15;7.10;;;;;;;;;;10493506;28;20094;-70
2022/05/02 18:31:27;;;;;;;17.27;8.57;;;;;;;;;;10507691;28;20048;-69
2022/05/02 18:36:33;;;;;;;15.07;8.80;;;;;;;;;;10526914;28;20113;-68
2022/05/02 18:41:49;;;;;;;23.50;8.63;;;;;;;;;;10516333;28;20039;-67
2022/05/02 18:57:39;;;;;;;12.50;6.85;;;;;;;;;;10519930;28;20063;-67
2022/05/02 19:02:45;;;;;;;14.05;8.05;;;;;;;;;;10508586;28;20053;-68
2022/05/02 19:07:51;;;;;;;22.02;10.63;;;;;;;;;;10531004;28;20045;-67
2022/05/02 19:12:55;;;;;;;19.15;9.52;;;;;;;;;;10526288;28;20073;-67
2022/05/02 19:18:00;;;;;;;21.35;11.32;;;;;;;;;;10493790;28;20213;-66
2022/05/02 19:23:05;;;;;;;36.97;17.08;;;;;;;;;;10488913;28;20040;-66
2022/05/02 19:28:13;;;;;;;41.22;17.77;;;;;;;;;;10497601;28;20052;-70
2022/05/02 19:33:21;;;;;;;30.85;15.23;;;;;;;;;;10491672;28;20119;-68
2022/05/02 19:44:20;;;;;;;25.40;13.63;;;;;;;;;;10400287;28;20122;-69
2022/05/02 19:49:24;;;;;;;27.55;13.35;;;;;;;;;;10421599;28;20383;-68
2022/05/02 19:54:27;;;;;;;18.83;11.23;;;;;;;;;;10418170;28;20463;-67
2022/05/02 19:59:31;;;;;;;16.90;9.57;;;;;;;;;;10418140;28;20080;-68
2022/05/02 20:04:35;;;;;;;14.68;9.25;;;;;;;;;;10430057;28;20049;-68
2022/05/02 20:09:38;;;;;;;25.37;12.37;;;;;;;;;;10428489;28;20053;-68
2022/05/02 20:14:41;;;;;;;25.90;11.88;;;;;;;;;;10463570;28;20183;-68
2022/05/02 20:19:44;;;;;;;17.48;9.98;;;;;;;;;;10475383;28;20061;-69
2022/05/02 20:24:47;;;;;;;21.67;9.73;;;;;;;;;;10476572;28;20048;-69
2022/05/02 20:29:50;;;;;;;16.00;9.10;;;;;;;;;;10499674;28;20045;-67
2022/05/02 20:40:17;;;;;;;21.67;11.27;;;;;;;;;;10523506;28;20064;-69
2022/05/02 20:45:23;;;;;;;25.42;12.95;;;;;;;;;;10489423;28;20328;-67
2022/05/02 20:50:30;;;;;;;31.27;13.43;;;;;;;;;;10514179;28;20090;-67
2022/05/02 20:55:34;;;;;;;24.45;11.43;;;;;;;;;;10528528;28;20040;-66
2022/05/02 21:00:37;;;;;;;17.65;10.20;;;;;;;;;;10475150;28;20052;-67
2022/05/02 21:05:41;;;;;;;16.10;10.35;;;;;;;;;;10494706;28;20064;-67
2022/05/02 21:10:49;;;;;;;14.93;11.18;;;;;;;;;;10480751;28;20057;-67
2022/05/02 21:15:55;;;;;;;18.35;11.02;;;;;;;;;;10487910;28;20057;-67
2022/05/02 21:21:02;;;;;;;19.42;10.07;;;;;;;;;;10488197;28;20079;-67
2022/05/02 21:26:09;;;;;;;14.85;10.38;;;;;;;;;;10502125;28;20048;-68
2022/05/02 21:31:32;;;;;;;18.95;10.57;;;;;;;;;;10485955;28;20041;-67
2022/05/02 21:36:39;;;;;;;17.05;10.02;;;;;;;;;;10486759;28;20044;-67
2022/05/02 21:41:42;;;;;;;14.65;9.35;;;;;;;;;;10491082;28;20044;-68
2022/05/02 21:46:44;;;;;;;18.88;9.35;;;;;;;;;;10514276;28;20087;-68
2022/05/02 21:51:48;;;;;;;14.98;8.55;;;;;;;;;;10515001;28;20315;-66
2022/05/02 21:56:50;;;;;;;13.77;7.93;;;;;;;;;;10484335;28;20072;-69
2022/05/02 22:01:53;;;;;;;13.70;7.75;;;;;;;;;;10480584;28;20049;-68
2022/05/02 22:06:59;;;;;;;19.80;8.50;;;;;;;;;;10480438;28;20261;-67
2022/05/02 22:12:02;;;;;;;11.85;7.40;;;;;;;;;;10498890;28;20259;-69
2022/05/02 22:17:04;;;;;;;18.20;8.02;;;;;;;;;;10471106;28;20037;-69
2022/05/02 22:22:08;;;;;;;11.95;7.28;;;;;;;;;;10473919;28;20045;-68
2022/05/02 22:27:13;;;;;;;18.30;7.07;;;;;;;;;;10470842;28;20079;-67
2022/05/02 22:32:15;;;;;;;9.68;6.55;;;;;;;;;;10475149;28;20045;-67
2022/05/02 22:37:19;;;;;;;12.30;7.13;;;;;;;;;;10492966;28;20048;-68
2022/05/02 22:42:21;;;;;;;11.13;7.50;;;;;;;;;;10519961;28;20056;-67
2022/05/02 22:47:24;;;;;;;14.70;7.68;;;;;;;;;;10519233;28;20052;-67
2022/05/02 22:52:27;;;;;;;10.05;6.68;;;;;;;;;;10512868;28;20067;-66
2022/05/02 22:57:31;;;;;;;16.45;7.22;;;;;;;;;;10500232;28;20045;-67
2022/05/02 23:02:39;;;;;;;10.85;7.05;;;;;;;;;;10477557;28;20045;-67
2022/05/02 23:07:57;;;;;;;9.05;6.82;;;;;;;;;;10478210;28;20037;-66
2022/05/02 23:13:01;;;;;;;14.52;7.30;;;;;;;;;;10484066;28;20045;-67
2022/05/02 23:18:06;;;;;;;11.57;6.88;;;;;;;;;;10477498;28;20049;-67
2022/05/02 23:23:10;;;;;;;16.67;7.20;;;;;;;;;;10518627;28;20044;-67
2022/05/02 23:28:13;;;;;;;14.43;6.75;;;;;;;;;;10518585;28;20067;-67
2022/05/02 23:33:21;;;;;;;11.93;6.72;;;;;;;;;;10498537;28;20041;-66
2022/05/02 23:38:37;;;;;;;10.88;6.47;;;;;;;;;;10532094;28;20345;-66
2022/05/02 23:43:50;;;;;;;14.95;6.88;;;;;;;;;;10501398;28;20267;-66
2022/05/02 23:49:03;;;;;;;11.32;6.20;;;;;;;;;;10490107;28;20048;-67
2022/05/02 23:54:16;;;;;;;9.20;6.63;;;;;;;;;;10497857;28;20346;-67
2022/05/02 23:59:28;;;;;;;12.05;7.00;;;;;;;;;;10530194;28;20063;-67
